sensor_id;sensor_type;location;lat;lon;timestamp;temperature;humidity
65038;DHT22;51605;47.040;15.294;2023-03-17T00:00:07;20.40;53.70
65038;DHT22;51605;47.040;15.294;2023-03-17T00:02:35;20.40;53.60
65038;DHT22;51605;47.040;15.294;2023-03-17T00:05:05;20.50;53.60
65038;DHT22;51605;47.040;15.294;2023-03-17T00:07:35;20.40;53.60
65038;DHT22;51605;47.040;15.294;2023-03-17T00:10:01;20.50;53.60
65038;DHT22;51605;47.040;15.294;2023-03-17T00:12:27;20.40;53.50
65038;DHT22;51605;47.040;15.294;2023-03-17T00:14:53;20.40;53.60
65038;DHT22;51605;47.040;15.294;2023-03-17T00:17:18;20.40;53.50
65038;DHT22;51605;47.040;15.294;2023-03-17T00:19:44;20.50;53.60
65038;DHT22;51605;47.040;15.294;2023-03-17T00:22:16;20.50;53.60
65038;DHT22;51605;47.040;15.294;2023-03-17T00:24:42;20.40;53.50
65038;DHT22;51605;47.040;15.294;2023-03-17T00:27:13;20.40;53.50
65038;DHT22;51605;47.040;15.294;2023-03-17T00:29:39;20.40;53.60
65038;DHT22;51605;47.040;15.294;2023-03-17T00:32:18;20.40;53.60
65038;DHT22;51605;47.040;15.294;2023-03-17T00:34:45;20.40;53.60
65038;DHT22;51605;47.040;15.294;2023-03-17T00:37:11;20.40;53.60
65038;DHT22;51605;47.040;15.294;2023-03-17T00:39:38;20.40;53.50
65038;DHT22;51605;47.040;15.294;2023-03-17T00:42:05;20.40;53.50
65038;DHT22;51605;47.040;15.294;2023-03-17T00:44:31;20.50;53.60
65038;DHT22;51605;47.040;15.294;2023-03-17T00:46:57;20.40;53.50
65038;DHT22;51605;47.040;15.294;2023-03-17T00:49:24;20.50;53.50
65038;DHT22;51605;47.040;15.294;2023-03-17T00:51:51;20.50;53.50
65038;DHT22;51605;47.040;15.294;2023-03-17T00:54:18;20.50;53.50
65038;DHT22;51605;47.040;15.294;2023-03-17T00:56:45;20.40;53.50
65038;DHT22;51605;47.040;15.294;2023-03-17T00:59:35;20.50;53.60
65038;DHT22;51605;47.040;15.294;2023-03-17T01:02:02;20.40;53.50
65038;DHT22;51605;47.040;15.294;2023-03-17T01:04:27;20.50;53.50
65038;DHT22;51605;47.040;15.294;2023-03-17T01:06:53;20.50;53.50
65038;DHT22;51605;47.040;15.294;2023-03-17T01:09:24;20.50;53.50
65038;DHT22;51605;47.040;15.294;2023-03-17T01:11:50;20.50;53.50
65038;DHT22;51605;47.040;15.294;2023-03-17T01:14:16;20.50;53.50
65038;DHT22;51605;47.040;15.294;2023-03-17T01:16:42;20.50;53.50
65038;DHT22;51605;47.040;15.294;2023-03-17T01:19:11;20.50;53.50
65038;DHT22;51605;47.040;15.294;2023-03-17T01:21:36;20.50;53.50
65038;DHT22;51605;47.040;15.294;2023-03-17T01:24:02;20.50;53.60
65038;DHT22;51605;47.040;15.294;2023-03-17T01:26:28;20.40;53.50
65038;DHT22;51605;47.040;15.294;2023-03-17T01:28:54;20.50;53.50
65038;DHT22;51605;47.040;15.294;2023-03-17T01:31:20;20.50;53.50
65038;DHT22;51605;47.040;15.294;2023-03-17T01:33:47;20.50;53.50
65038;DHT22;51605;47.040;15.294;2023-03-17T01:36:12;20.50;53.50
65038;DHT22;51605;47.040;15.294;2023-03-17T01:38:40;20.50;53.50
65038;DHT22;51605;47.040;15.294;2023-03-17T01:41:06;20.50;53.50
65038;DHT22;51605;47.040;15.294;2023-03-17T01:43:32;20.50;53.40
65038;DHT22;51605;47.040;15.294;2023-03-17T01:46:28;20.50;53.50
65038;DHT22;51605;47.040;15.294;2023-03-17T01:52:09;20.40;53.40
65038;DHT22;51605;47.040;15.294;2023-03-17T01:54:43;20.40;53.50
65038;DHT22;51605;47.040;15.294;2023-03-17T01:57:21;20.40;53.50
65038;DHT22;51605;47.040;15.294;2023-03-17T02:00:09;20.40;53.40
65038;DHT22;51605;47.040;15.294;2023-03-17T02:02:39;20.40;53.50
65038;DHT22;51605;47.040;15.294;2023-03-17T02:05:08;20.40;53.40
65038;DHT22;51605;47.040;15.294;2023-03-17T02:07:35;20.40;53.50
65038;DHT22;51605;47.040;15.294;2023-03-17T02:10:03;20.40;53.50
65038;DHT22;51605;47.040;15.294;2023-03-17T02:12:28;20.40;53.50
65038;DHT22;51605;47.040;15.294;2023-03-17T02:14:55;20.50;53.50
65038;DHT22;51605;47.040;15.294;2023-03-17T02:17:24;20.50;53.30
65038;DHT22;51605;47.040;15.294;2023-03-17T02:19:50;20.50;53.40
65038;DHT22;51605;47.040;15.294;2023-03-17T02:22:17;20.50;53.30
65038;DHT22;51605;47.040;15.294;2023-03-17T02:24:54;20.50;54.30
65038;DHT22;51605;47.040;15.294;2023-03-17T02:27:27;20.50;53.40
65038;DHT22;51605;47.040;15.294;2023-03-17T02:29:56;20.50;53.40
65038;DHT22;51605;47.040;15.294;2023-03-17T02:32:22;20.50;53.40
65038;DHT22;51605;47.040;15.294;2023-03-17T02:34:48;20.50;53.40
65038;DHT22;51605;47.040;15.294;2023-03-17T02:37:15;20.50;53.40
65038;DHT22;51605;47.040;15.294;2023-03-17T02:39:41;20.50;53.40
65038;DHT22;51605;47.040;15.294;2023-03-17T02:42:07;20.50;53.30
65038;DHT22;51605;47.040;15.294;2023-03-17T02:44:33;20.50;53.30
65038;DHT22;51605;47.040;15.294;2023-03-17T02:47:00;20.50;53.30
65038;DHT22;51605;47.040;15.294;2023-03-17T02:49:26;20.50;53.30
65038;DHT22;51605;47.040;15.294;2023-03-17T02:51:52;20.50;53.20
65038;DHT22;51605;47.040;15.294;2023-03-17T02:54:18;20.50;53.20
65038;DHT22;51605;47.040;15.294;2023-03-17T02:56:44;20.60;53.40
65038;DHT22;51605;47.040;15.294;2023-03-17T02:59:10;20.50;54.20
65038;DHT22;51605;47.040;15.294;2023-03-17T03:01:36;20.50;53.20
65038;DHT22;51605;47.040;15.294;2023-03-17T03:04:04;20.50;54.20
65038;DHT22;51605;47.040;15.294;2023-03-17T03:06:29;20.50;53.30
65038;DHT22;51605;47.040;15.294;2023-03-17T03:08:56;20.50;53.30
65038;DHT22;51605;47.040;15.294;2023-03-17T03:11:22;20.50;53.30
65038;DHT22;51605;47.040;15.294;2023-03-17T03:13:47;20.50;53.30
65038;DHT22;51605;47.040;15.294;2023-03-17T03:16:13;20.50;53.40
65038;DHT22;51605;47.040;15.294;2023-03-17T03:18:39;20.50;53.30
65038;DHT22;51605;47.040;15.294;2023-03-17T03:21:06;20.50;53.30
65038;DHT22;51605;47.040;15.294;2023-03-17T03:23:32;20.50;53.30
65038;DHT22;51605;47.040;15.294;2023-03-17T03:25:58;20.50;53.30
65038;DHT22;51605;47.040;15.294;2023-03-17T03:28:23;20.50;53.20
65038;DHT22;51605;47.040;15.294;2023-03-17T03:30:49;20.50;53.30
65038;DHT22;51605;47.040;15.294;2023-03-17T03:33:16;20.50;53.30
65038;DHT22;51605;47.040;15.294;2023-03-17T03:35:42;20.50;53.30
65038;DHT22;51605;47.040;15.294;2023-03-17T03:38:09;20.50;53.30
65038;DHT22;51605;47.040;15.294;2023-03-17T03:40:35;20.50;53.30
65038;DHT22;51605;47.040;15.294;2023-03-17T03:43:01;20.50;53.30
65038;DHT22;51605;47.040;15.294;2023-03-17T03:45:27;20.50;53.40
65038;DHT22;51605;47.040;15.294;2023-03-17T03:47:53;20.50;53.30
65038;DHT22;51605;47.040;15.294;2023-03-17T03:50:19;20.50;53.30
65038;DHT22;51605;47.040;15.294;2023-03-17T03:52:44;20.50;53.30
65038;DHT22;51605;47.040;15.294;2023-03-17T03:55:10;20.50;53.30
65038;DHT22;51605;47.040;15.294;2023-03-17T03:57:36;20.50;53.40
65038;DHT22;51605;47.040;15.294;2023-03-17T04:00:03;20.50;53.30
65038;DHT22;51605;47.040;15.294;2023-03-17T04:02:30;20.50;53.40
65038;DHT22;51605;47.040;15.294;2023-03-17T04:04:56;20.50;53.40
65038;DHT22;51605;47.040;15.294;2023-03-17T04:07:22;20.50;53.30
65038;DHT22;51605;47.040;15.294;2023-03-17T04:09:48;20.50;53.30
65038;DHT22;51605;47.040;15.294;2023-03-17T04:12:14;20.50;53.30
65038;DHT22;51605;47.040;15.294;2023-03-17T04:14:40;20.50;53.30
65038;DHT22;51605;47.040;15.294;2023-03-17T04:17:09;20.50;53.30
65038;DHT22;51605;47.040;15.294;2023-03-17T04:19:35;20.50;53.30
65038;DHT22;51605;47.040;15.294;2023-03-17T04:22:00;20.50;53.30
65038;DHT22;51605;47.040;15.294;2023-03-17T04:24:26;20.50;53.40
65038;DHT22;51605;47.040;15.294;2023-03-17T04:26:52;20.50;53.30
65038;DHT22;51605;47.040;15.294;2023-03-17T04:29:18;20.50;53.40
65038;DHT22;51605;47.040;15.294;2023-03-17T04:31:44;20.50;53.30
65038;DHT22;51605;47.040;15.294;2023-03-17T04:34:14;20.50;53.30
65038;DHT22;51605;47.040;15.294;2023-03-17T04:36:41;20.50;53.30
65038;DHT22;51605;47.040;15.294;2023-03-17T04:39:07;20.50;53.30
65038;DHT22;51605;47.040;15.294;2023-03-17T04:41:33;20.50;53.30
65038;DHT22;51605;47.040;15.294;2023-03-17T04:43:58;20.50;53.30
65038;DHT22;51605;47.040;15.294;2023-03-17T04:46:24;20.50;53.30
65038;DHT22;51605;47.040;15.294;2023-03-17T04:48:50;20.50;53.30
65038;DHT22;51605;47.040;15.294;2023-03-17T04:51:16;20.50;53.20
65038;DHT22;51605;47.040;15.294;2023-03-17T04:53:42;20.50;53.30
65038;DHT22;51605;47.040;15.294;2023-03-17T04:56:09;20.50;53.30
65038;DHT22;51605;47.040;15.294;2023-03-17T04:58:35;20.40;53.30
65038;DHT22;51605;47.040;15.294;2023-03-17T05:01:00;20.50;53.50
65038;DHT22;51605;47.040;15.294;2023-03-17T05:03:27;20.40;53.50
65038;DHT22;51605;47.040;15.294;2023-03-17T05:05:55;20.40;53.30
65038;DHT22;51605;47.040;15.294;2023-03-17T05:08:21;20.50;53.20
65038;DHT22;51605;47.040;15.294;2023-03-17T05:10:47;20.50;53.50
65038;DHT22;51605;47.040;15.294;2023-03-17T05:13:13;20.60;53.40
65038;DHT22;51605;47.040;15.294;2023-03-17T05:15:39;20.60;53.40
65038;DHT22;51605;47.040;15.294;2023-03-17T05:18:04;20.70;53.50
65038;DHT22;51605;47.040;15.294;2023-03-17T05:20:31;20.70;53.30
65038;DHT22;51605;47.040;15.294;2023-03-17T05:22:56;20.80;53.20
65038;DHT22;51605;47.040;15.294;2023-03-17T05:25:22;20.90;53.20
65038;DHT22;51605;47.040;15.294;2023-03-17T05:27:47;21.10;52.90
65038;DHT22;51605;47.040;15.294;2023-03-17T05:30:13;21.20;52.50
65038;DHT22;51605;47.040;15.294;2023-03-17T05:32:40;21.40;52.10
65038;DHT22;51605;47.040;15.294;2023-03-17T05:35:06;21.50;51.80
65038;DHT22;51605;47.040;15.294;2023-03-17T05:37:32;21.60;51.40
65038;DHT22;51605;47.040;15.294;2023-03-17T05:39:58;21.70;51.10
65038;DHT22;51605;47.040;15.294;2023-03-17T05:42:23;21.80;51.80
65038;DHT22;51605;47.040;15.294;2023-03-17T05:44:49;21.90;50.60
65038;DHT22;51605;47.040;15.294;2023-03-17T05:47:15;21.90;50.60
65038;DHT22;51605;47.040;15.294;2023-03-17T05:49:40;22.00;50.30
65038;DHT22;51605;47.040;15.294;2023-03-17T05:52:06;22.00;50.10
65038;DHT22;51605;47.040;15.294;2023-03-17T05:54:32;22.10;50.00
65038;DHT22;51605;47.040;15.294;2023-03-17T05:56:57;22.10;49.80
65038;DHT22;51605;47.040;15.294;2023-03-17T05:59:23;22.10;49.80
65038;DHT22;51605;47.040;15.294;2023-03-17T06:01:49;22.10;49.80
65038;DHT22;51605;47.040;15.294;2023-03-17T06:04:15;22.10;49.80
65038;DHT22;51605;47.040;15.294;2023-03-17T06:06:40;22.20;49.70
65038;DHT22;51605;47.040;15.294;2023-03-17T06:09:06;22.20;49.50
65038;DHT22;51605;47.040;15.294;2023-03-17T06:11:32;22.20;49.40
65038;DHT22;51605;47.040;15.294;2023-03-17T06:13:58;22.20;49.40
65038;DHT22;51605;47.040;15.294;2023-03-17T06:16:24;22.30;49.30
65038;DHT22;51605;47.040;15.294;2023-03-17T06:18:49;22.20;49.20
65038;DHT22;51605;47.040;15.294;2023-03-17T06:21:16;22.30;49.30
65038;DHT22;51605;47.040;15.294;2023-03-17T06:23:41;22.30;49.20
65038;DHT22;51605;47.040;15.294;2023-03-17T06:26:07;22.30;49.20
65038;DHT22;51605;47.040;15.294;2023-03-17T06:28:33;22.30;49.20
65038;DHT22;51605;47.040;15.294;2023-03-17T06:30:59;22.30;49.10
65038;DHT22;51605;47.040;15.294;2023-03-17T06:33:25;22.30;49.10
65038;DHT22;51605;47.040;15.294;2023-03-17T06:35:50;22.30;49.10
65038;DHT22;51605;47.040;15.294;2023-03-17T06:38:16;22.30;49.10
65038;DHT22;51605;47.040;15.294;2023-03-17T06:40:42;22.30;49.00
65038;DHT22;51605;47.040;15.294;2023-03-17T06:43:07;22.30;49.00
65038;DHT22;51605;47.040;15.294;2023-03-17T06:45:34;22.30;49.10
65038;DHT22;51605;47.040;15.294;2023-03-17T06:47:59;22.30;49.00
65038;DHT22;51605;47.040;15.294;2023-03-17T06:50:26;22.30;48.90
65038;DHT22;51605;47.040;15.294;2023-03-17T06:52:52;22.30;48.70
65038;DHT22;51605;47.040;15.294;2023-03-17T06:55:17;22.30;48.80
65038;DHT22;51605;47.040;15.294;2023-03-17T06:57:43;22.30;48.70
65038;DHT22;51605;47.040;15.294;2023-03-17T07:00:09;22.30;48.70
65038;DHT22;51605;47.040;15.294;2023-03-17T07:02:38;22.30;48.70
65038;DHT22;51605;47.040;15.294;2023-03-17T07:05:04;22.30;48.60
65038;DHT22;51605;47.040;15.294;2023-03-17T07:07:30;22.30;48.70
65038;DHT22;51605;47.040;15.294;2023-03-17T07:09:56;22.30;48.70
65038;DHT22;51605;47.040;15.294;2023-03-17T07:12:22;22.30;48.60
65038;DHT22;51605;47.040;15.294;2023-03-17T07:14:48;22.30;48.60
65038;DHT22;51605;47.040;15.294;2023-03-17T07:17:14;22.30;48.60
65038;DHT22;51605;47.040;15.294;2023-03-17T07:19:40;22.30;48.50
65038;DHT22;51605;47.040;15.294;2023-03-17T07:22:08;22.30;48.50
65038;DHT22;51605;47.040;15.294;2023-03-17T07:24:33;22.30;48.50
65038;DHT22;51605;47.040;15.294;2023-03-17T07:26:59;22.30;48.50
65038;DHT22;51605;47.040;15.294;2023-03-17T07:29:24;22.30;48.60
65038;DHT22;51605;47.040;15.294;2023-03-17T07:31:51;22.30;48.50
65038;DHT22;51605;47.040;15.294;2023-03-17T07:34:18;22.30;48.50
65038;DHT22;51605;47.040;15.294;2023-03-17T07:36:44;22.30;48.50
65038;DHT22;51605;47.040;15.294;2023-03-17T07:39:10;22.30;48.50
65038;DHT22;51605;47.040;15.294;2023-03-17T07:41:36;22.30;48.50
65038;DHT22;51605;47.040;15.294;2023-03-17T07:44:01;22.30;48.50
65038;DHT22;51605;47.040;15.294;2023-03-17T07:46:28;22.30;48.40
65038;DHT22;51605;47.040;15.294;2023-03-17T07:48:54;22.30;48.50
65038;DHT22;51605;47.040;15.294;2023-03-17T07:51:21;22.30;48.50
65038;DHT22;51605;47.040;15.294;2023-03-17T07:53:50;22.30;48.40
65038;DHT22;51605;47.040;15.294;2023-03-17T07:56:16;22.30;48.50
65038;DHT22;51605;47.040;15.294;2023-03-17T07:58:42;22.30;48.40
65038;DHT22;51605;47.040;15.294;2023-03-17T08:01:08;22.30;48.30
65038;DHT22;51605;47.040;15.294;2023-03-17T08:03:34;22.30;48.20
65038;DHT22;51605;47.040;15.294;2023-03-17T08:06:01;22.30;48.30
65038;DHT22;51605;47.040;15.294;2023-03-17T08:08:28;22.30;48.40
65038;DHT22;51605;47.040;15.294;2023-03-17T08:11:01;22.30;48.30
65038;DHT22;51605;47.040;15.294;2023-03-17T08:13:28;22.40;48.30
65038;DHT22;51605;47.040;15.294;2023-03-17T08:15:54;22.30;48.20
65038;DHT22;51605;47.040;15.294;2023-03-17T08:18:20;22.30;48.30
65038;DHT22;51605;47.040;15.294;2023-03-17T08:20:46;22.30;48.40
65038;DHT22;51605;47.040;15.294;2023-03-17T08:23:11;22.30;48.40
65038;DHT22;51605;47.040;15.294;2023-03-17T08:25:37;22.30;48.40
65038;DHT22;51605;47.040;15.294;2023-03-17T08:28:03;22.30;48.40
65038;DHT22;51605;47.040;15.294;2023-03-17T08:30:29;22.30;48.30
65038;DHT22;51605;47.040;15.294;2023-03-17T08:32:55;22.30;48.30
65038;DHT22;51605;47.040;15.294;2023-03-17T08:35:21;22.30;48.30
65038;DHT22;51605;47.040;15.294;2023-03-17T08:37:46;22.30;48.40
65038;DHT22;51605;47.040;15.294;2023-03-17T08:40:15;22.30;48.40
65038;DHT22;51605;47.040;15.294;2023-03-17T08:42:45;22.30;48.30
65038;DHT22;51605;47.040;15.294;2023-03-17T08:45:12;22.30;48.30
65038;DHT22;51605;47.040;15.294;2023-03-17T08:47:38;22.30;48.30
65038;DHT22;51605;47.040;15.294;2023-03-17T08:50:08;22.30;48.30
65038;DHT22;51605;47.040;15.294;2023-03-17T08:52:35;22.30;48.30
65038;DHT22;51605;47.040;15.294;2023-03-17T08:55:01;22.30;49.20
65038;DHT22;51605;47.040;15.294;2023-03-17T08:57:26;22.30;48.30
65038;DHT22;51605;47.040;15.294;2023-03-17T08:59:52;22.30;48.30
65038;DHT22;51605;47.040;15.294;2023-03-17T09:02:18;22.30;49.00
65038;DHT22;51605;47.040;15.294;2023-03-17T09:04:45;22.40;48.40
65038;DHT22;51605;47.040;15.294;2023-03-17T09:07:11;22.30;48.30
65038;DHT22;51605;47.040;15.294;2023-03-17T09:09:37;22.30;48.40
65038;DHT22;51605;47.040;15.294;2023-03-17T09:12:04;22.40;48.40
65038;DHT22;51605;47.040;15.294;2023-03-17T09:14:31;22.40;48.40
65038;DHT22;51605;47.040;15.294;2023-03-17T09:16:57;22.40;48.40
65038;DHT22;51605;47.040;15.294;2023-03-17T09:19:24;22.40;48.30
65038;DHT22;51605;47.040;15.294;2023-03-17T09:21:50;22.40;48.30
65038;DHT22;51605;47.040;15.294;2023-03-17T09:24:17;22.30;48.30
65038;DHT22;51605;47.040;15.294;2023-03-17T09:26:43;22.30;48.30
65038;DHT22;51605;47.040;15.294;2023-03-17T09:29:09;22.40;48.30
65038;DHT22;51605;47.040;15.294;2023-03-17T09:31:34;22.40;48.30
65038;DHT22;51605;47.040;15.294;2023-03-17T09:34:01;22.30;48.20
65038;DHT22;51605;47.040;15.294;2023-03-17T09:36:29;22.30;48.30
65038;DHT22;51605;47.040;15.294;2023-03-17T09:38:55;22.30;48.30
65038;DHT22;51605;47.040;15.294;2023-03-17T09:46:47;22.30;48.30
65038;DHT22;51605;47.040;15.294;2023-03-17T09:49:18;22.30;48.40
65038;DHT22;51605;47.040;15.294;2023-03-17T09:51:45;22.30;48.30
65038;DHT22;51605;47.040;15.294;2023-03-17T09:54:18;22.30;48.40
65038;DHT22;51605;47.040;15.294;2023-03-17T09:56:48;22.30;48.40
65038;DHT22;51605;47.040;15.294;2023-03-17T09:59:42;22.30;48.40
65038;DHT22;51605;47.040;15.294;2023-03-17T10:02:30;22.30;48.30
65038;DHT22;51605;47.040;15.294;2023-03-17T10:04:57;22.40;48.80
65038;DHT22;51605;47.040;15.294;2023-03-17T10:07:28;22.40;48.90
65038;DHT22;51605;47.040;15.294;2023-03-17T10:10:02;22.40;48.90
65038;DHT22;51605;47.040;15.294;2023-03-17T10:15:50;22.50;49.30
65038;DHT22;51605;47.040;15.294;2023-03-17T10:18:18;22.50;49.40
65038;DHT22;51605;47.040;15.294;2023-03-17T10:23:29;22.60;50.40
65038;DHT22;51605;47.040;15.294;2023-03-17T10:25:58;22.60;50.10
65038;DHT22;51605;47.040;15.294;2023-03-17T10:28:31;22.60;50.10
65038;DHT22;51605;47.040;15.294;2023-03-17T10:31:20;22.70;50.20
65038;DHT22;51605;47.040;15.294;2023-03-17T10:33:53;22.60;50.60
65038;DHT22;51605;47.040;15.294;2023-03-17T10:36:35;22.60;50.70
65038;DHT22;51605;47.040;15.294;2023-03-17T10:39:04;22.60;50.90
65038;DHT22;51605;47.040;15.294;2023-03-17T10:41:45;22.60;51.20
65038;DHT22;51605;47.040;15.294;2023-03-17T10:44:53;22.60;51.20
65038;DHT22;51605;47.040;15.294;2023-03-17T10:47:25;22.60;51.40
65038;DHT22;51605;47.040;15.294;2023-03-17T10:49:55;22.60;51.40
65038;DHT22;51605;47.040;15.294;2023-03-17T10:52:27;22.60;51.50
65038;DHT22;51605;47.040;15.294;2023-03-17T10:54:55;22.60;51.50
65038;DHT22;51605;47.040;15.294;2023-03-17T10:57:25;22.70;51.30
65038;DHT22;51605;47.040;15.294;2023-03-17T10:59:53;22.80;51.00
65038;DHT22;51605;47.040;15.294;2023-03-17T11:02:24;22.90;50.70
65038;DHT22;51605;47.040;15.294;2023-03-17T11:04:54;23.00;50.40
65038;DHT22;51605;47.040;15.294;2023-03-17T11:07:32;23.00;50.30
65038;DHT22;51605;47.040;15.294;2023-03-17T11:10:00;23.00;50.10
65038;DHT22;51605;47.040;15.294;2023-03-17T11:12:39;23.00;50.00
65038;DHT22;51605;47.040;15.294;2023-03-17T11:15:09;23.00;50.00
65038;DHT22;51605;47.040;15.294;2023-03-17T11:23:01;22.90;49.70
65038;DHT22;51605;47.040;15.294;2023-03-17T11:25:31;22.90;49.80
65038;DHT22;51605;47.040;15.294;2023-03-17T11:28:22;22.90;49.80
65038;DHT22;51605;47.040;15.294;2023-03-17T11:31:09;22.90;49.70
65038;DHT22;51605;47.040;15.294;2023-03-17T11:37:27;22.90;49.80
65038;DHT22;51605;47.040;15.294;2023-03-17T11:47:31;22.80;49.70
65038;DHT22;51605;47.040;15.294;2023-03-17T11:50:15;22.80;49.70
65038;DHT22;51605;47.040;15.294;2023-03-17T11:55:56;22.80;49.70
65038;DHT22;51605;47.040;15.294;2023-03-17T11:58:41;22.80;49.70
65038;DHT22;51605;47.040;15.294;2023-03-17T12:01:55;22.80;49.60
65038;DHT22;51605;47.040;15.294;2023-03-17T12:04:19;22.70;49.60
65038;DHT22;51605;47.040;15.294;2023-03-17T12:06:55;22.70;49.60
65038;DHT22;51605;47.040;15.294;2023-03-17T12:09:34;22.70;49.60
65038;DHT22;51605;47.040;15.294;2023-03-17T12:12:02;22.70;49.60
65038;DHT22;51605;47.040;15.294;2023-03-17T12:14:32;22.70;49.70
65038;DHT22;51605;47.040;15.294;2023-03-17T12:20:12;22.70;49.60
65038;DHT22;51605;47.040;15.294;2023-03-17T12:23:00;22.70;49.60
65038;DHT22;51605;47.040;15.294;2023-03-17T12:25:38;22.70;48.90
65038;DHT22;51605;47.040;15.294;2023-03-17T12:28:15;22.70;49.70
65038;DHT22;51605;47.040;15.294;2023-03-17T12:30:51;22.70;50.60
65038;DHT22;51605;47.040;15.294;2023-03-17T12:33:27;22.70;49.80
65038;DHT22;51605;47.040;15.294;2023-03-17T12:35:54;22.70;49.50
65038;DHT22;51605;47.040;15.294;2023-03-17T12:38:37;22.80;49.70
65038;DHT22;51605;47.040;15.294;2023-03-17T12:41:19;22.70;49.60
65038;DHT22;51605;47.040;15.294;2023-03-17T12:44:06;22.70;49.60
65038;DHT22;51605;47.040;15.294;2023-03-17T12:54:49;22.70;49.60
65038;DHT22;51605;47.040;15.294;2023-03-17T12:59:44;22.80;49.60
65038;DHT22;51605;47.040;15.294;2023-03-17T13:04:52;22.70;49.60
65038;DHT22;51605;47.040;15.294;2023-03-17T13:23:52;22.80;49.70
65038;DHT22;51605;47.040;15.294;2023-03-17T13:26:20;22.80;49.70
65038;DHT22;51605;47.040;15.294;2023-03-17T13:28:48;22.80;49.70
65038;DHT22;51605;47.040;15.294;2023-03-17T13:34:12;22.80;49.70
65038;DHT22;51605;47.040;15.294;2023-03-17T13:37:18;22.80;49.60
65038;DHT22;51605;47.040;15.294;2023-03-17T13:40:06;22.80;49.70
65038;DHT22;51605;47.040;15.294;2023-03-17T13:47:48;22.80;49.70
65038;DHT22;51605;47.040;15.294;2023-03-17T13:50:16;22.70;49.70
65038;DHT22;51605;47.040;15.294;2023-03-17T13:52:53;22.80;49.80
65038;DHT22;51605;47.040;15.294;2023-03-17T14:00:34;22.70;49.80
65038;DHT22;51605;47.040;15.294;2023-03-17T14:03:10;22.70;49.80
65038;DHT22;51605;47.040;15.294;2023-03-17T14:05:38;22.70;49.80
65038;DHT22;51605;47.040;15.294;2023-03-17T14:08:13;22.70;49.80
65038;DHT22;51605;47.040;15.294;2023-03-17T14:10:40;22.70;49.80
65038;DHT22;51605;47.040;15.294;2023-03-17T14:13:30;22.70;49.80
65038;DHT22;51605;47.040;15.294;2023-03-17T14:16:00;22.70;49.80
65038;DHT22;51605;47.040;15.294;2023-03-17T14:18:32;22.70;49.80
65038;DHT22;51605;47.040;15.294;2023-03-17T14:21:00;22.70;49.80
65038;DHT22;51605;47.040;15.294;2023-03-17T14:23:28;22.70;49.80
65038;DHT22;51605;47.040;15.294;2023-03-17T14:25:56;22.70;49.80
65038;DHT22;51605;47.040;15.294;2023-03-17T14:28:25;22.60;50.10
65038;DHT22;51605;47.040;15.294;2023-03-17T14:30:59;22.70;49.80
65038;DHT22;51605;47.040;15.294;2023-03-17T14:33:26;22.70;49.70
65038;DHT22;51605;47.040;15.294;2023-03-17T14:35:55;22.70;49.70
65038;DHT22;51605;47.040;15.294;2023-03-17T14:38:30;22.70;49.70
65038;DHT22;51605;47.040;15.294;2023-03-17T14:41:34;22.70;49.60
65038;DHT22;51605;47.040;15.294;2023-03-17T14:43:57;22.70;49.60
65038;DHT22;51605;47.040;15.294;2023-03-17T14:48:50;22.70;49.60
65038;DHT22;51605;47.040;15.294;2023-03-17T14:51:31;22.60;49.60
65038;DHT22;51605;47.040;15.294;2023-03-17T14:54:00;22.60;49.60
65038;DHT22;51605;47.040;15.294;2023-03-17T14:56:31;22.60;49.60
65038;DHT22;51605;47.040;15.294;2023-03-17T14:59:14;22.60;49.60
65038;DHT22;51605;47.040;15.294;2023-03-17T15:01:43;22.60;49.70
65038;DHT22;51605;47.040;15.294;2023-03-17T15:04:20;22.60;49.60
65038;DHT22;51605;47.040;15.294;2023-03-17T15:12:15;22.60;49.50
65038;DHT22;51605;47.040;15.294;2023-03-17T15:14:39;22.60;49.40
65038;DHT22;51605;47.040;15.294;2023-03-17T15:17:15;22.70;49.60
65038;DHT22;51605;47.040;15.294;2023-03-17T15:19:46;22.60;49.60
65038;DHT22;51605;47.040;15.294;2023-03-17T15:25:32;22.60;49.60
65038;DHT22;51605;47.040;15.294;2023-03-17T15:27:57;22.60;49.70
65038;DHT22;51605;47.040;15.294;2023-03-17T15:30:23;22.60;49.60
65038;DHT22;51605;47.040;15.294;2023-03-17T15:33:00;22.60;49.70
65038;DHT22;51605;47.040;15.294;2023-03-17T15:35:25;22.50;49.60
65038;DHT22;51605;47.040;15.294;2023-03-17T15:37:52;22.40;50.00
65038;DHT22;51605;47.040;15.294;2023-03-17T15:40:18;22.30;49.90
65038;DHT22;51605;47.040;15.294;2023-03-17T15:42:43;22.20;50.10
65038;DHT22;51605;47.040;15.294;2023-03-17T15:45:16;22.00;50.50
65038;DHT22;51605;47.040;15.294;2023-03-17T15:47:43;22.00;50.90
65038;DHT22;51605;47.040;15.294;2023-03-17T15:50:19;21.80;51.10
65038;DHT22;51605;47.040;15.294;2023-03-17T15:52:46;21.60;51.50
65038;DHT22;51605;47.040;15.294;2023-03-17T15:55:24;21.60;51.90
65038;DHT22;51605;47.040;15.294;2023-03-17T15:57:53;21.50;52.10
65038;DHT22;51605;47.040;15.294;2023-03-17T16:00:19;21.40;52.30
65038;DHT22;51605;47.040;15.294;2023-03-17T16:02:46;21.30;52.60
65038;DHT22;51605;47.040;15.294;2023-03-17T16:05:35;21.30;52.80
65038;DHT22;51605;47.040;15.294;2023-03-17T16:08:01;21.20;53.00
65038;DHT22;51605;47.040;15.294;2023-03-17T16:10:29;21.20;52.90
65038;DHT22;51605;47.040;15.294;2023-03-17T16:12:55;21.10;53.00
65038;DHT22;51605;47.040;15.294;2023-03-17T16:15:29;21.10;53.10
65038;DHT22;51605;47.040;15.294;2023-03-17T16:18:01;21.10;53.20
65038;DHT22;51605;47.040;15.294;2023-03-17T16:20:38;21.10;53.10
65038;DHT22;51605;47.040;15.294;2023-03-17T16:23:19;21.10;53.10
65038;DHT22;51605;47.040;15.294;2023-03-17T16:25:46;21.10;53.20
65038;DHT22;51605;47.040;15.294;2023-03-17T16:28:13;21.10;53.10
65038;DHT22;51605;47.040;15.294;2023-03-17T16:30:39;21.10;53.10
65038;DHT22;51605;47.040;15.294;2023-03-17T16:33:22;21.10;53.20
65038;DHT22;51605;47.040;15.294;2023-03-17T16:35:49;21.10;53.00
65038;DHT22;51605;47.040;15.294;2023-03-17T16:38:21;21.10;53.10
65038;DHT22;51605;47.040;15.294;2023-03-17T16:40:53;21.10;53.20
65038;DHT22;51605;47.040;15.294;2023-03-17T16:43:21;21.00;53.20
65038;DHT22;51605;47.040;15.294;2023-03-17T16:45:48;21.00;53.30
65038;DHT22;51605;47.040;15.294;2023-03-17T16:48:15;21.00;53.30
65038;DHT22;51605;47.040;15.294;2023-03-17T16:50:41;21.10;53.40
65038;DHT22;51605;47.040;15.294;2023-03-17T16:53:07;21.00;53.30
65038;DHT22;51605;47.040;15.294;2023-03-17T16:55:34;21.00;53.30
65038;DHT22;51605;47.040;15.294;2023-03-17T16:58:04;21.00;53.40